| time (UTC) | temp C | wind direction | speed KPH | gust KPH | rain 1hr cm | rain 24hr cm | rain mn cm | humidity % | barometer mb |
| 20260507210014 | 26 | 108 | 3.2 | 11.3 | 0.00 | 0.00 | 0.00 | 27 | 1011.3 |
| 20260507204514 | 25 | 108 | 1.6 | 14.5 | 0.00 | 0.00 | 0.00 | 28 | 1011.5 |
| 20260507203009 | 25 | 218 | 1.6 | 8.0 | 0.00 | 0.00 | 0.00 | 28 | 1011.6 |
| 20260507201513 | 25 | 96 | 0.0 | 17.7 | 0.00 | 0.00 | 0.00 | 30 | 1011.7 |
| 20260507200011 | 24 | 192 | 1.6 | 11.3 | 0.00 | 0.00 | 0.00 | 31 | 1011.8 |
| 20260507194505 | 25 | 114 | 1.6 | 14.5 | 0.00 | 0.00 | 0.00 | 31 | 1012.0 |
| 20260507193100 | 23 | 118 | 3.2 | 14.5 | 0.00 | 0.00 | 0.00 | 34 | 1012.1 |
| 20260507191558 | 23 | 177 | 0.0 | 9.7 | 0.00 | 0.00 | 0.00 | 35 | 1012.1 |
| 20260507190057 | 23 | 189 | 3.2 | 9.7 | 0.00 | 0.00 | 0.00 | 36 | 1012.2 |
| 20260507184552 | 22 | 146 | 0.0 | 6.4 | 0.00 | 0.00 | 0.00 | 38 | 1012.3 |
| 20260507183049 | 22 | 218 | 1.6 | 11.3 | 0.00 | 0.00 | 0.00 | 40 | 1012.4 |
| 20260507181553 | 22 | 112 | 3.2 | 12.9 | 0.00 | 0.00 | 0.00 | 40 | 1012.3 |
| 20260507180043 | 22 | 181 | 1.6 | 9.7 | 0.00 | 0.00 | 0.00 | 40 | 1012.4 |
| 20260507174549 | 21 | 268 | 0.0 | 0.0 | 0.00 | 0.00 | 0.00 | 39 | 1012.5 |
| 20260507173052 | 21 | 274 | 0.0 | 1.6 | 0.00 | 0.00 | 0.00 | 40 | 1012.6 |
| 20260507171541 | 21 | 301 | 0.0 | 0.0 | 0.00 | 0.00 | 0.00 | 39 | 1012.7 |
| 20260507170026 | 20 | 305 | 0.0 | 0.0 | 0.00 | 0.00 | 0.00 | 42 | 1012.8 |
| 20260507164529 | 20 | 305 | 0.0 | 0.0 | 0.00 | 0.00 | 0.00 | 44 | 1012.9 |
| 20260507163019 | 19 | 305 | 0.0 | 0.0 | 0.00 | 0.00 | 0.00 | 46 | 1012.8 |
| 20260507161516 | 18 | 305 | 0.0 | 0.0 | 0.00 | 0.00 | 0.00 | 47 | 1012.8 |
| 20260507160014 | 18 | 307 | 0.0 | 0.0 | 0.00 | 0.00 | 0.00 | 50 | 1012.9 |
| 20260507154506 | 18 | 306 | 0.0 | 0.0 | 0.00 | 0.00 | 0.00 | 52 | 1012.8 |
| 20260507153002 | 17 | 310 | 0.0 | 0.0 | 0.00 | 0.00 | 0.00 | 57 | 1012.7 |
| 20260507151601 | 16 | 308 | 0.0 | 0.0 | 0.00 | 0.00 | 0.00 | 60 | 1012.8 |
| 20260507150100 | 16 | 359 | 0.0 | 0.0 | 0.00 | 0.00 | 0.00 | 63 | 1012.6 |
| 20260507144554 | 16 | 309 | 0.0 | 0.0 | 0.00 | 0.00 | 0.00 | 64 | 1012.6 |
| 20260507143047 | 15 | 309 | 0.0 | 0.0 | 0.00 | 0.00 | 0.00 | 64 | 1012.5 |
| 20260507141551 | 15 | 308 | 0.0 | 0.0 | 0.00 | 0.00 | 0.00 | 67 | 1012.5 |
| 20260507140039 | 13 | 308 | 0.0 | 0.0 | 0.00 | 0.00 | 0.00 | 70 | 1012.3 |
| 20260507134532 | 13 | 308 | 0.0 | 0.0 | 0.00 | 0.00 | 0.00 | 73 | 1012.2 |
| 20260507133029 | 12 | 308 | 0.0 | 0.0 | 0.00 | 0.00 | 0.00 | 75 | 1012.2 |
| 20260507131530 | 12 | 308 | 0.0 | 0.0 | 0.00 | 0.00 | 0.00 | 76 | 1011.9 |
| 20260507130025 | 12 | 359 | 0.0 | 0.0 | 0.00 | 0.00 | 0.00 | 75 | 1011.8 |
| 20260507124520 | 12 | 309 | 0.0 | 0.0 | 0.00 | 0.00 | 0.00 | 74 | 1011.7 |
| 20260507123016 | 12 | 309 | 0.0 | 0.0 | 0.00 | 0.00 | 0.00 | 74 | 1011.7 |
| 20260507121516 | 12 | 309 | 0.0 | 0.0 | 0.00 | 0.00 | 0.00 | 74 | 1011.6 |
| 20260507120035 | 12 | 309 | 0.0 | 0.0 | 0.00 | 0.00 | 0.00 | 75 | 1011.5 |
| 20260507114510 | 12 | 309 | 0.0 | 0.0 | 0.00 | 0.00 | 0.00 | 74 | 1011.4 |
| 20260507113032 | 12 | 309 | 0.0 | 4.8 | 0.00 | 0.00 | 0.00 | 75 | 1011.4 |
| 20260507111509 | 12 | 310 | 0.0 | 3.2 | 0.00 | 0.00 | 0.00 | 74 | 1011.4 |
| 20260507110011 | 12 | 310 | 0.0 | 0.0 | 0.00 | 0.00 | 0.00 | 74 | 1011.5 |
| 20260507104506 | 12 | 310 | 0.0 | 4.8 | 0.00 | 0.00 | 0.00 | 74 | 1011.5 |
| 20260507103008 | 13 | 308 | 0.0 | 4.8 | 0.00 | 0.00 | 0.00 | 73 | 1011.5 |
| 20260507101507 | 13 | 301 | 0.0 | 0.0 | 0.00 | 0.00 | 0.00 | 71 | 1011.4 |
| 20260507100109 | 13 | 301 | 0.0 | 0.0 | 0.00 | 0.00 | 0.00 | 69 | 1011.2 |
| 20260507094559 | 14 | 301 | 0.0 | 1.6 | 0.00 | 0.00 | 0.00 | 68 | 1011.1 |
| 20260507093056 | 14 | 301 | 0.0 | 3.2 | 0.00 | 0.00 | 0.00 | 66 | 1011.1 |
| 20260507091555 | 14 | 301 | 0.0 | 1.6 | 0.00 | 0.00 | 0.00 | 66 | 1011.0 |
| 20260507090056 | 14 | 301 | 0.0 | 3.2 | 0.00 | 0.00 | 0.00 | 68 | 1011.0 |
| 20260507084558 | 14 | 301 | 0.0 | 1.6 | 0.00 | 0.00 | 0.00 | 65 | 1011.2 |
| 20260507083050 | 14 | 301 | 0.0 | 3.2 | 0.00 | 0.00 | 0.00 | 62 | 1010.9 |
| 20260507081549 | 15 | 301 | 0.0 | 1.6 | 0.00 | 0.00 | 0.00 | 60 | 1011.0 |
| 20260507080047 | 15 | 301 | 0.0 | 3.2 | 0.00 | 0.00 | 0.00 | 59 | 1011.0 |
| 20260507074548 | 15 | 302 | 0.0 | 0.0 | 0.00 | 0.00 | 0.00 | 60 | 1011.1 |
| 20260507073052 | 16 | 301 | 0.0 | 3.2 | 0.00 | 0.00 | 0.00 | 62 | 1010.9 |
| 20260507071538 | 16 | 301 | 0.0 | 4.8 | 0.00 | 0.00 | 0.00 | 61 | 1010.8 |
| 20260507070039 | 16 | 301 | 0.0 | 3.2 | 0.00 | 0.00 | 0.00 | 61 | 1010.3 |
| 20260507064542 | 17 | 301 | 0.0 | 4.8 | 0.00 | 0.00 | 0.00 | 59 | 1010.3 |
| 20260507063040 | 17 | 301 | 0.0 | 3.2 | 0.00 | 0.00 | 0.00 | 58 | 1010.1 |
| 20260507061537 | 17 | 303 | 0.0 | 0.0 | 0.00 | 0.00 | 0.00 | 57 | 1010.0 |
| 20260507060036 | 18 | 303 | 0.0 | 0.0 | 0.00 | 0.00 | 0.00 | 55 | 1009.9 |
| 20260507054531 | 18 | 303 | 0.0 | 0.0 | 0.00 | 0.00 | 0.00 | 50 | 1010.3 |
| 20260507053035 | 19 | 303 | 0.0 | 0.0 | 0.00 | 0.00 | 0.00 | 44 | 1010.0 |
| 20260507051530 | 20 | 303 | 0.0 | 0.0 | 0.00 | 0.00 | 0.00 | 42 | 1010.1 |
| 20260507050032 | 20 | 303 | 0.0 | 0.0 | 0.00 | 0.00 | 0.00 | 39 | 1010.0 |
| 20260507044527 | 20 | 303 | 0.0 | 0.0 | 0.00 | 0.00 | 0.00 | 41 | 1009.8 |
| 20260507043030 | 20 | 304 | 0.0 | 0.0 | 0.00 | 0.00 | 0.00 | 40 | 1009.8 |
| 20260507041528 | 21 | 303 | 0.0 | 6.4 | 0.00 | 0.00 | 0.00 | 40 | 1009.5 |
| 20260507040024 | 21 | 285 | 1.6 | 6.4 | 0.00 | 0.00 | 0.00 | 39 | 1009.2 |
| 20260507034532 | 21 | 299 | 0.0 | 3.2 | 0.00 | 0.00 | 0.00 | 38 | 1009.2 |
| 20260507033024 | 22 | 297 | 0.0 | 9.7 | 0.00 | 0.00 | 0.00 | 37 | 1008.9 |
| 20260507031522 | 22 | 260 | 1.6 | 12.9 | 0.00 | 0.00 | 0.00 | 36 | 1008.6 |
| 20260507030024 | 22 | 301 | 1.6 | 8.0 | 0.00 | 0.00 | 0.00 | 36 | 1008.3 |
| 20260507024522 | 23 | 259 | 1.6 | 12.9 | 0.00 | 0.00 | 0.00 | 35 | 1008.1 |
| 20260507023022 | 23 | 278 | 1.6 | 8.0 | 0.00 | 0.00 | 0.00 | 35 | 1008.2 |
| 20260507021521 | 24 | 301 | 1.6 | 8.0 | 0.00 | 0.00 | 0.00 | 34 | 1008.0 |
| 20260507020021 | 25 | 295 | 1.6 | 6.4 | 0.00 | 0.00 | 0.00 | 33 | 1007.9 |
| 20260507014524 | 25 | 293 | 1.6 | 8.0 | 0.00 | 0.00 | 0.00 | 33 | 1007.8 |
| 20260507013020 | 26 | 307 | 1.6 | 6.4 | 0.00 | 0.00 | 0.00 | 31 | 1007.8 |
| 20260507011520 | 26 | 251 | 1.6 | 14.5 | 0.00 | 0.00 | 0.00 | 31 | 1007.8 |
| 20260507010029 | 26 | 254 | 1.6 | 8.0 | 0.00 | 0.00 | 0.00 | 33 | 1007.6 |
| 20260507004517 | 26 | 164 | 4.8 | 17.7 | 0.00 | 0.00 | 0.00 | 40 | 1007.1 |
| 20260507003017 | 27 | 126 | 0.0 | 16.1 | 0.00 | 0.00 | 0.00 | 38 | 1007.0 |
| 20260507001517 | 27 | 170 | 1.6 | 11.3 | 0.00 | 0.00 | 0.00 | 37 | 1006.9 |
| 20260507000016 | 28 | 185 | 3.2 | 11.3 | 0.00 | 0.00 | 0.00 | 36 | 1006.8 |
| 20260506234534 | 28 | 143 | 1.6 | 11.3 | 0.00 | 0.00 | 0.00 | 37 | 1006.9 |
| 20260506233015 | 28 | 146 | 3.2 | 22.5 | 0.00 | 0.00 | 0.00 | 36 | 1007.0 |
| 20260506231513 | 29 | 147 | 4.8 | 25.7 | 0.00 | 0.00 | 0.00 | 35 | 1007.1 |
| 20260506230010 | 28 | 165 | 1.6 | 14.5 | 0.00 | 0.00 | 0.00 | 34 | 1007.3 |
| 20260506224522 | 28 | 216 | 3.2 | 16.1 | 0.00 | 0.00 | 0.00 | 33 | 1007.6 |
| 20260506223008 | 28 | 212 | 1.6 | 12.9 | 0.00 | 0.00 | 0.00 | 31 | 1007.8 |
| 20260506221507 | 29 | 126 | 3.2 | 17.7 | 0.00 | 0.00 | 0.00 | 29 | 1007.9 |
| 20260506220017 | 29 | 175 | 3.2 | 16.1 | 0.00 | 0.00 | 0.00 | 28 | 1008.0 |
| 20260506214504 | 29 | 111 | 1.6 | 14.5 | 0.00 | 0.00 | 0.00 | 31 | 1008.2 |
| 20260506213002 | 28 | 163 | 3.2 | 19.3 | 0.00 | 0.00 | 0.00 | 31 | 1008.4 |
| 20260506211559 | 28 | 147 | 1.6 | 20.9 | 0.00 | 0.00 | 0.00 | 32 | 1008.4 |